createdAt,value
2018-12-04T00:02:04.850Z,60.00
2018-12-04T00:04:33.368Z,63.30
2018-12-04T00:07:02.258Z,61.87
2018-12-04T00:09:30.769Z,64.90
2018-12-04T00:11:59.324Z,63.60
2018-12-04T00:14:28.170Z,63.93
2018-12-04T00:16:56.602Z,63.07
2018-12-04T00:19:25.041Z,65.10
2018-12-04T00:21:53.974Z,66.30
2018-12-04T00:24:22.558Z,66.67
2018-12-04T00:26:51.036Z,67.07
2018-12-04T00:29:20.090Z,64.20
2018-12-04T00:31:48.105Z,63.87
2018-12-04T00:34:16.613Z,65.73
2018-12-04T00:36:45.346Z,68.43
2018-12-04T00:39:13.861Z,65.77
2018-12-04T00:41:42.380Z,65.93
2018-12-04T00:44:11.658Z,69.03
2018-12-04T00:46:40.230Z,73.77
2018-12-04T00:49:08.673Z,74.87
2018-12-04T00:51:37.505Z,72.47
2018-12-04T00:54:06.163Z,75.30
2018-12-04T00:56:34.539Z,77.10
2018-12-04T00:59:04.515Z,78.27
2018-12-04T01:01:33.050Z,78.20
2018-12-04T01:04:01.009Z,76.87
2018-12-04T01:06:29.829Z,80.43
2018-12-04T01:08:58.342Z,77.67
2018-12-04T01:11:27.101Z,79.90
2018-12-04T01:13:55.738Z,82.60
2018-12-04T01:16:24.305Z,79.20
2018-12-04T01:18:52.961Z,78.43
2018-12-04T01:21:21.689Z,82.63
2018-12-04T01:23:49.926Z,81.60
2018-12-04T01:26:18.406Z,82.50
2018-12-04T01:28:47.052Z,78.73
2018-12-04T01:31:15.682Z,80.10
2018-12-04T01:33:44.377Z,84.93
2018-12-04T01:36:13.495Z,80.83
2018-12-04T01:38:42.253Z,81.23
2018-12-04T01:41:10.762Z,80.17
2018-12-04T01:43:39.634Z,80.27
2018-12-04T01:46:08.115Z,78.90
2018-12-04T01:48:36.561Z,78.90
2018-12-04T01:51:05.133Z,81.50
2018-12-04T01:53:34.714Z,83.87
2018-12-04T01:56:03.238Z,80.47
2018-12-04T01:58:32.161Z,81.50
2018-12-04T02:01:01.770Z,79.97
2018-12-04T02:03:30.356Z,79.87
2018-12-04T02:05:59.107Z,77.27
2018-12-04T02:08:27.122Z,82.10
2018-12-04T02:10:55.266Z,85.33
2018-12-04T02:13:24.087Z,81.23
2018-12-04T02:15:52.870Z,81.40
2018-12-04T02:18:21.278Z,82.00
2018-12-04T02:20:49.943Z,86.33
2018-12-04T02:23:18.699Z,84.40
2018-12-04T02:25:47.138Z,86.07
2018-12-04T02:28:16.002Z,84.17
2018-12-04T02:30:44.489Z,85.07
2018-12-04T02:33:13.169Z,84.23
2018-12-04T02:35:42.022Z,81.60
2018-12-04T02:38:10.546Z,88.93
2018-12-04T02:40:39.369Z,85.57
2018-12-04T02:43:08.423Z,85.03
2018-12-04T02:45:37.235Z,85.23
2018-12-04T02:48:05.745Z,87.80
2018-12-04T02:50:34.698Z,92.87
2018-12-04T02:53:03.767Z,93.00
2018-12-04T02:55:32.495Z,86.70
2018-12-04T02:58:01.556Z,94.50
2018-12-04T03:00:29.953Z,95.37
2018-12-04T03:02:59.407Z,96.27
2018-12-04T03:05:28.150Z,97.70
2018-12-04T03:07:56.708Z,99.30
2018-12-04T03:10:25.418Z,100.00
2018-12-04T03:12:53.879Z,99.77
2018-12-04T03:15:22.466Z,103.40
2018-12-04T03:17:51.174Z,99.93
2018-12-04T03:20:20.000Z,99.70
2018-12-04T03:22:48.394Z,101.53
2018-12-04T03:25:16.785Z,104.00
2018-12-04T03:27:45.866Z,105.63
2018-12-04T03:30:14.454Z,102.57
2018-12-04T03:32:43.008Z,108.80
2018-12-04T03:35:11.941Z,101.57
2018-12-04T03:37:40.375Z,102.13
2018-12-04T03:40:08.774Z,95.10
2018-12-04T03:42:37.001Z,95.83
2018-12-04T03:45:05.716Z,94.90
2018-12-04T03:47:34.169Z,92.23
2018-12-04T03:50:03.170Z,95.23
2018-12-04T03:52:32.265Z,93.00
2018-12-04T03:55:01.074Z,89.17
2018-12-04T03:57:29.793Z,82.90
2018-12-04T03:59:58.408Z,86.60
2018-12-04T04:02:27.114Z,94.70
2018-12-04T04:04:57.086Z,97.37
2018-12-04T04:07:25.700Z,97.80
2018-12-04T04:09:54.389Z,98.67
2018-12-04T04:12:23.500Z,105.10
2018-12-04T04:14:51.954Z,107.27
2018-12-04T04:17:20.586Z,104.93
2018-12-04T04:19:49.606Z,99.67
2018-12-04T04:22:18.150Z,102.47
2018-12-04T04:24:46.593Z,103.37
2018-12-04T04:27:15.757Z,102.10
2018-12-04T04:29:44.369Z,102.30
2018-12-04T04:32:13.132Z,102.90
2018-12-04T04:34:42.006Z,104.40
2018-12-04T04:37:10.505Z,103.87
2018-12-04T04:39:39.013Z,104.10
2018-12-04T04:42:08.015Z,102.57
2018-12-04T04:44:36.499Z,100.07
2018-12-04T04:47:05.082Z,99.33
2018-12-04T04:49:34.285Z,104.37
2018-12-04T04:52:02.938Z,106.83
2018-12-04T04:54:31.454Z,100.37
2018-12-04T04:57:00.314Z,104.27
2018-12-04T04:59:29.010Z,103.67
2018-12-04T05:01:57.687Z,96.50
2018-12-04T05:04:26.378Z,95.77
2018-12-04T05:06:55.954Z,95.00
2018-12-04T05:09:24.336Z,96.53
2018-12-04T05:11:53.195Z,97.50
2018-12-04T05:14:21.774Z,97.67
2018-12-04T05:16:50.498Z,93.00
2018-12-04T05:19:19.070Z,90.17
2018-12-04T05:21:47.394Z,87.47
2018-12-04T05:24:16.150Z,81.43
2018-12-04T05:26:44.953Z,82.23
2018-12-04T05:29:13.354Z,76.50
2018-12-04T05:31:42.042Z,80.17
2018-12-04T05:34:11.139Z,75.40
2018-12-04T05:36:39.929Z,67.17
2018-12-04T05:39:08.439Z,66.27
2018-12-04T05:41:37.333Z,67.07
2018-12-04T05:44:05.810Z,65.27
2018-12-04T05:46:34.570Z,63.53
2018-12-04T05:49:03.290Z,57.17
2018-12-04T05:51:31.850Z,60.60
2018-12-04T05:54:00.458Z,79.17
2018-12-04T05:56:29.531Z,81.07
2018-12-04T05:58:58.213Z,78.40
2018-12-04T06:01:26.701Z,77.57
2018-12-04T06:03:55.689Z,79.73
2018-12-04T06:06:24.299Z,75.17
2018-12-04T06:08:54.613Z,75.80
2018-12-04T06:11:23.499Z,81.63
2018-12-04T06:13:52.083Z,79.37
2018-12-04T06:16:20.696Z,73.60
2018-12-04T06:18:49.681Z,73.83
2018-12-04T06:21:18.046Z,68.40
2018-12-04T06:23:46.628Z,71.47
2018-12-04T06:26:15.650Z,71.37
2018-12-04T06:28:44.373Z,52.63
2018-12-04T06:31:12.658Z,48.10
2018-12-04T06:33:41.633Z,42.50
2018-12-04T06:36:10.191Z,39.87
2018-12-04T06:38:38.917Z,38.73
2018-12-04T06:41:07.426Z,36.97
2018-12-04T06:43:35.824Z,37.20
2018-12-04T06:46:04.574Z,37.23
2018-12-04T06:48:33.222Z,35.57
2018-12-04T06:51:01.778Z,36.00
2018-12-04T06:53:30.392Z,37.00
2018-12-04T06:55:59.486Z,33.17
2018-12-04T06:58:28.141Z,28.03
2018-12-04T07:00:56.653Z,28.37
2018-12-04T07:03:25.518Z,24.60
2018-12-04T07:05:54.871Z,20.00
2018-12-04T07:08:23.511Z,23.60
2018-12-04T07:10:53.675Z,19.17
2018-12-04T07:13:22.115Z,22.20
2018-12-04T07:15:50.869Z,23.63
2018-12-04T07:18:19.534Z,22.67
2018-12-04T07:20:47.966Z,20.80
2018-12-04T07:23:16.581Z,22.80
2018-12-04T07:25:45.557Z,19.90
2018-12-04T07:28:14.232Z,18.90
2018-12-04T07:30:42.644Z,13.10
2018-12-04T07:33:11.529Z,11.93
2018-12-04T07:35:40.630Z,10.70
2018-12-04T07:38:09.117Z,8.23
2018-12-04T07:40:38.186Z,6.07
2018-12-04T07:43:06.942Z,8.00
2018-12-04T07:45:35.313Z,8.63
2018-12-04T07:48:05.274Z,8.60
2018-12-04T07:50:34.030Z,8.60
2018-12-04T07:53:02.650Z,8.10
2018-12-04T07:55:31.385Z,8.90
2018-12-04T07:57:59.842Z,9.20
2018-12-04T08:00:28.399Z,7.67
2018-12-04T08:02:57.039Z,8.63
2018-12-04T08:05:25.570Z,7.47
2018-12-04T08:07:54.228Z,7.67
2018-12-04T08:10:22.892Z,6.57
2018-12-04T08:12:52.766Z,6.80
2018-12-04T08:15:21.446Z,6.90
2018-12-04T08:17:50.570Z,7.30
2018-12-04T08:20:19.124Z,7.63
2018-12-04T08:22:47.528Z,6.93
2018-12-04T08:25:16.397Z,7.23
2018-12-04T08:27:44.992Z,5.80
2018-12-04T08:30:13.742Z,6.47
2018-12-04T08:32:42.283Z,6.63
2018-12-04T08:35:10.738Z,6.00
2018-12-04T08:37:39.291Z,7.33
2018-12-04T08:40:07.938Z,5.77
2018-12-04T08:42:36.495Z,6.37
2018-12-04T08:45:05.618Z,5.53
2018-12-04T08:47:34.381Z,4.70
2018-12-04T08:50:03.072Z,6.47
2018-12-04T08:52:31.751Z,6.30
2018-12-04T08:55:00.369Z,5.53
2018-12-04T08:57:28.926Z,5.80
2018-12-04T08:59:57.582Z,5.33
2018-12-04T09:02:26.229Z,6.47
2018-12-04T09:04:54.706Z,5.17
2018-12-04T09:07:23.161Z,5.50
2018-12-04T09:09:52.286Z,5.90
2018-12-04T09:12:21.019Z,6.50
2018-12-04T09:14:49.590Z,8.77
2018-12-04T09:17:18.350Z,13.20
2018-12-04T09:19:46.709Z,15.03
2018-12-04T09:22:16.048Z,4.47
2018-12-04T09:24:44.819Z,4.20
2018-12-04T09:27:13.469Z,9.83
2018-12-04T09:29:42.079Z,20.53
2018-12-04T09:32:11.063Z,22.17
2018-12-04T09:34:39.645Z,24.50
2018-12-04T09:37:08.328Z,28.63
2018-12-04T09:39:37.482Z,32.27
2018-12-04T09:42:06.017Z,35.00
2018-12-04T09:44:34.597Z,33.60
2018-12-04T09:47:03.326Z,36.10
2018-12-04T09:49:31.870Z,34.07
2018-12-04T09:51:59.939Z,36.13
2018-12-04T09:54:28.786Z,31.53
2018-12-04T09:56:57.443Z,33.90
2018-12-04T09:59:26.268Z,32.80
2018-12-04T10:01:55.078Z,33.40
2018-12-04T10:04:23.515Z,33.93
2018-12-04T10:06:52.172Z,32.53
2018-12-04T10:09:21.130Z,30.00
2018-12-04T10:11:49.470Z,31.13
2018-12-04T10:14:19.212Z,34.27
2018-12-04T10:16:49.071Z,28.70
2018-12-04T10:19:17.703Z,29.07
2018-12-04T10:21:46.409Z,30.43
2018-12-04T10:24:14.998Z,30.47
2018-12-04T10:26:45.586Z,30.23
2018-12-04T10:29:14.044Z,30.93
2018-12-04T10:31:43.465Z,32.50
2018-12-04T10:34:12.031Z,29.37
2018-12-04T10:36:40.619Z,29.00
2018-12-04T10:39:10.002Z,29.00
2018-12-04T10:41:38.426Z,31.67
2018-12-04T10:44:07.010Z,31.40
2018-12-04T10:46:35.946Z,31.93
2018-12-04T10:49:04.282Z,33.23
2018-12-04T10:51:32.865Z,30.60
2018-12-04T10:54:03.833Z,29.10
2018-12-04T10:56:32.369Z,27.90
2018-12-04T10:59:01.131Z,29.83
2018-12-04T11:01:35.491Z,30.37
2018-12-04T11:04:04.091Z,30.70
2018-12-04T11:06:32.817Z,29.97
2018-12-04T11:09:02.094Z,29.30
2018-12-04T11:11:30.835Z,27.00
2018-12-04T11:13:59.345Z,28.83
2018-12-04T11:16:28.218Z,29.93
2018-12-04T11:18:58.183Z,30.50
2018-12-04T11:21:27.076Z,29.73
2018-12-04T11:23:55.866Z,29.17
2018-12-04T11:26:24.399Z,28.20
2018-12-04T11:28:53.087Z,30.30
2018-12-04T11:31:22.079Z,30.90
2018-12-04T11:33:50.526Z,32.90
2018-12-04T11:36:19.048Z,31.97
2018-12-04T11:38:47.962Z,31.17
2018-12-04T11:41:16.698Z,31.83
2018-12-04T11:43:45.137Z,35.07
2018-12-04T11:46:13.999Z,33.20
2018-12-04T11:48:42.534Z,32.97
2018-12-04T11:51:11.267Z,32.57
2018-12-04T11:53:40.061Z,30.40
2018-12-04T11:56:10.479Z,30.30
2018-12-04T11:58:40.164Z,32.00
2018-12-04T12:01:08.962Z,31.70
2018-12-04T12:03:37.476Z,33.60
2018-12-04T12:06:06.157Z,34.87
2018-12-04T12:08:35.065Z,31.17
2018-12-04T12:11:03.450Z,33.70
2018-12-04T12:13:32.051Z,33.73
2018-12-04T12:16:01.113Z,33.37
2018-12-04T12:18:29.778Z,33.93
2018-12-04T12:21:00.598Z,35.90
2018-12-04T12:23:29.333Z,37.43
2018-12-04T12:26:01.115Z,37.93
2018-12-04T12:28:30.216Z,36.83
2018-12-04T12:30:58.770Z,36.83
2018-12-04T12:33:27.451Z,37.73
2018-12-04T12:35:56.339Z,39.03
2018-12-04T12:38:24.745Z,38.47
2018-12-04T12:40:53.411Z,39.60
2018-12-04T12:43:22.058Z,38.60
2018-12-04T12:45:51.078Z,38.70
2018-12-04T12:48:19.682Z,37.37
2018-12-04T12:50:48.579Z,40.27
2018-12-04T12:53:17.438Z,42.17
2018-12-04T12:55:45.810Z,43.73
2018-12-04T12:58:14.869Z,40.90
2018-12-04T13:00:43.530Z,39.40
2018-12-04T13:03:12.331Z,39.60
2018-12-04T13:05:40.958Z,42.73
2018-12-04T13:08:09.490Z,43.43
2018-12-04T13:10:38.245Z,44.33
2018-12-04T13:13:06.923Z,45.93
2018-12-04T13:15:35.445Z,46.90
2018-12-04T13:18:03.941Z,42.30
2018-12-04T13:20:33.266Z,45.80
2018-12-04T13:23:03.609Z,44.47
2018-12-04T13:25:32.454Z,45.80
2018-12-04T13:28:01.196Z,44.17
2018-12-04T13:30:29.750Z,44.53
2018-12-04T13:32:58.338Z,43.70
2018-12-04T13:35:27.446Z,44.63
2018-12-04T13:37:56.268Z,45.53
2018-12-04T13:40:25.106Z,53.80
2018-12-04T13:42:53.954Z,45.90
2018-12-04T13:45:22.485Z,43.67
2018-12-04T13:47:51.218Z,41.80
2018-12-04T13:50:19.878Z,40.87
2018-12-04T13:52:48.322Z,38.53
2018-12-04T13:55:17.073Z,39.70
2018-12-04T13:57:50.691Z,40.90
2018-12-04T14:00:16.930Z,38.23
2018-12-04T14:02:45.708Z,37.67
2018-12-04T14:05:14.138Z,42.17
2018-12-04T14:07:42.670Z,38.70
2018-12-04T14:10:11.582Z,37.20
2018-12-04T14:12:40.076Z,38.37
2018-12-04T14:15:08.865Z,39.83
2018-12-04T14:17:37.966Z,37.93
2018-12-04T14:20:07.575Z,36.63
2018-12-04T14:22:36.345Z,36.20
2018-12-04T14:25:06.361Z,36.73
2018-12-04T14:27:34.909Z,41.80
2018-12-04T14:30:04.087Z,35.87
2018-12-04T14:32:33.585Z,38.33
2018-12-04T14:35:02.160Z,37.27
2018-12-04T14:37:30.622Z,37.77
2018-12-04T14:39:59.426Z,36.20
2018-12-04T14:42:28.035Z,32.97
2018-12-04T14:44:56.457Z,38.83
2018-12-04T14:47:25.394Z,34.10
2018-12-04T14:49:53.893Z,35.23
2018-12-04T14:52:22.618Z,33.90
2018-12-04T14:54:51.291Z,35.10
2018-12-04T14:57:19.994Z,34.47
2018-12-04T14:59:48.439Z,33.57
2018-12-04T15:02:17.459Z,31.30
2018-12-04T15:04:46.857Z,31.13
2018-12-04T15:07:15.694Z,28.87
2018-12-04T15:09:45.329Z,30.63
2018-12-04T15:12:13.899Z,29.60
2018-12-04T15:14:41.937Z,29.33
2018-12-04T15:17:10.356Z,38.23
2018-12-04T15:19:39.054Z,34.90
2018-12-04T15:22:07.803Z,32.20
2018-12-04T15:24:36.498Z,31.27
2018-12-04T15:27:05.958Z,29.57
2018-12-04T15:29:34.401Z,26.53
2018-12-04T15:32:03.798Z,26.27
2018-12-04T15:34:32.202Z,28.63
2018-12-04T15:37:00.911Z,29.03
2018-12-04T15:39:29.884Z,30.10
2018-12-04T15:41:58.306Z,28.60
2018-12-04T15:44:26.930Z,27.77
2018-12-04T15:46:55.944Z,26.80
2018-12-04T15:49:24.330Z,25.80
2018-12-04T15:51:52.805Z,26.70
2018-12-04T15:54:21.553Z,26.07
2018-12-04T15:56:49.982Z,23.70
2018-12-04T15:59:18.538Z,24.97
2018-12-04T16:01:47.434Z,23.30
2018-12-04T16:04:15.914Z,24.30
2018-12-04T16:06:44.502Z,22.33
2018-12-04T16:09:13.712Z,23.37
2018-12-04T16:11:42.454Z,24.00
2018-12-04T16:14:10.739Z,22.73
2018-12-04T16:16:39.658Z,24.00
2018-12-04T16:19:08.309Z,22.30
2018-12-04T16:21:36.662Z,24.40
2018-12-04T16:24:05.520Z,21.93
2018-12-04T16:26:34.206Z,23.03
2018-12-04T16:29:03.516Z,19.87
2018-12-04T16:31:32.134Z,22.57
2018-12-04T16:34:00.681Z,22.13
2018-12-04T16:36:29.362Z,22.33
2018-12-04T16:38:57.993Z,21.37
2018-12-04T16:41:26.531Z,22.87
2018-12-04T16:43:55.142Z,21.70
2018-12-04T16:46:23.938Z,23.53
2018-12-04T16:48:52.570Z,23.30
2018-12-04T16:51:22.171Z,23.40
2018-12-04T16:53:51.585Z,25.67
2018-12-04T16:56:20.208Z,24.73
2018-12-04T16:58:48.703Z,25.70
2018-12-04T17:01:17.570Z,25.40
2018-12-04T17:03:46.330Z,27.50
2018-12-04T17:06:14.857Z,28.53
2018-12-04T17:08:43.774Z,28.63
2018-12-04T17:11:12.447Z,29.90
2018-12-04T17:13:40.897Z,31.17
2018-12-04T17:16:10.105Z,35.80
2018-12-04T17:18:38.711Z,31.77
2018-12-04T17:21:07.374Z,29.73
2018-12-04T17:23:36.199Z,29.87
2018-12-04T17:26:04.746Z,29.73
2018-12-04T17:28:33.502Z,28.10
2018-12-04T17:31:03.815Z,27.70
2018-12-04T17:33:32.346Z,23.57
2018-12-04T17:36:00.999Z,23.27
2018-12-04T17:38:29.876Z,20.50
2018-12-04T17:40:58.306Z,20.40
2018-12-04T17:43:27.062Z,21.07
2018-12-04T17:45:55.571Z,21.20
2018-12-04T17:48:23.857Z,19.70
2018-12-04T17:50:51.861Z,21.50
2018-12-04T17:53:20.048Z,18.93
2018-12-04T17:55:48.759Z,21.60
2018-12-04T17:58:17.305Z,20.97
2018-12-04T18:00:45.923Z,19.50
2018-12-04T18:03:13.819Z,19.20
2018-12-04T18:05:42.410Z,20.03
2018-12-04T18:08:11.206Z,20.73
2018-12-04T18:10:39.506Z,20.00
2018-12-04T18:13:07.921Z,19.43
2018-12-04T18:15:36.785Z,19.40
2018-12-04T18:18:05.340Z,18.87
2018-12-04T18:20:34.098Z,19.27
2018-12-04T18:23:03.074Z,19.90
2018-12-04T18:25:31.879Z,19.70
2018-12-04T18:28:00.300Z,20.80
2018-12-04T18:30:28.930Z,20.60
2018-12-04T18:32:58.394Z,21.40
2018-12-04T18:35:26.972Z,23.47
2018-12-04T18:37:55.970Z,21.60
2018-12-04T18:40:24.518Z,21.50
2018-12-04T18:42:52.829Z,22.17
2018-12-04T18:45:22.026Z,21.07
2018-12-04T18:47:50.607Z,22.93
2018-12-04T18:50:19.089Z,22.60
2018-12-04T18:52:48.294Z,22.17
2018-12-04T18:55:17.049Z,22.23
2018-12-04T18:57:45.561Z,20.83
2018-12-04T19:00:14.662Z,21.83
2018-12-04T19:02:43.349Z,20.87
2018-12-04T19:05:11.930Z,19.90
2018-12-04T19:07:40.722Z,20.80
2018-12-04T19:10:09.331Z,19.30
2018-12-04T19:12:37.829Z,21.17
2018-12-04T19:15:06.913Z,20.43
2018-12-04T19:17:35.475Z,22.70
2018-12-04T19:20:04.804Z,20.97
2018-12-04T19:22:33.666Z,21.87
2018-12-04T19:25:02.460Z,22.00
2018-12-04T19:27:31.043Z,21.63
2018-12-04T19:30:00.190Z,22.67
2018-12-04T19:32:28.727Z,21.27
2018-12-04T19:34:58.305Z,22.60
2018-12-04T19:37:27.486Z,22.30
2018-12-04T19:39:56.010Z,23.27
2018-12-04T19:42:24.453Z,23.13
2018-12-04T19:44:53.287Z,22.10
2018-12-04T19:47:21.695Z,24.33
2018-12-04T19:49:50.353Z,22.63
2018-12-04T19:52:19.863Z,23.57
2018-12-04T19:54:48.543Z,24.57
2018-12-04T19:57:17.130Z,24.50
2018-12-04T19:59:46.126Z,24.33
2018-12-04T20:02:14.815Z,25.73
2018-12-04T20:04:43.258Z,26.50
2018-12-04T20:07:12.209Z,24.77
2018-12-04T20:09:40.880Z,23.20
2018-12-04T20:12:09.233Z,23.93
2018-12-04T20:14:37.949Z,23.73
2018-12-04T20:17:06.731Z,25.27
2018-12-04T20:19:35.318Z,25.57
2018-12-04T20:22:06.719Z,25.73
2018-12-04T20:24:35.259Z,27.37
2018-12-04T20:27:06.758Z,24.97
2018-12-04T20:29:35.290Z,26.50
2018-12-04T20:32:06.353Z,26.10
2018-12-04T20:34:35.536Z,25.80
2018-12-04T20:37:07.498Z,26.33
2018-12-04T20:39:36.282Z,26.67
2018-12-04T20:42:08.675Z,25.40
2018-12-04T20:44:37.044Z,25.90
2018-12-04T20:47:06.820Z,26.70
2018-12-04T20:49:35.362Z,25.30
2018-12-04T20:52:04.078Z,25.60
2018-12-04T20:54:32.614Z,26.77
2018-12-04T20:57:02.183Z,28.87
2018-12-04T20:59:31.053Z,28.30
2018-12-04T21:01:59.505Z,25.90
2018-12-04T21:04:28.244Z,27.97
2018-12-04T21:06:57.018Z,27.13
2018-12-04T21:09:25.554Z,26.97
2018-12-04T21:11:53.998Z,29.80
2018-12-04T21:14:22.927Z,29.90
2018-12-04T21:16:51.582Z,30.93
2018-12-04T21:19:20.019Z,28.63
2018-12-04T21:21:49.016Z,29.50
2018-12-04T21:24:17.496Z,30.70
2018-12-04T21:26:46.159Z,29.60
2018-12-04T21:29:20.902Z,31.67
2018-12-04T21:31:54.902Z,30.30
2018-12-04T21:34:29.934Z,32.53
2018-12-04T21:37:04.073Z,32.07
2018-12-04T21:39:36.477Z,31.77
2018-12-04T21:45:18.463Z,33.20
2018-12-04T21:47:52.511Z,32.77
2018-12-04T21:50:21.423Z,32.93
2018-12-04T21:52:49.857Z,32.10
2018-12-04T21:55:18.516Z,30.83
2018-12-04T21:57:47.368Z,33.23
2018-12-04T22:00:15.998Z,33.93
2018-12-04T22:02:44.398Z,31.47
2018-12-04T22:05:13.374Z,32.30
2018-12-04T22:07:41.959Z,32.60
2018-12-04T22:10:10.465Z,31.90
2018-12-04T22:12:39.534Z,32.43
2018-12-04T22:15:08.089Z,32.53
2018-12-04T22:17:36.625Z,31.03
2018-12-04T22:20:06.949Z,31.60
2018-12-04T22:22:35.438Z,31.90
2018-12-04T22:25:04.231Z,29.30
2018-12-04T22:27:33.054Z,30.83
2018-12-04T22:30:01.603Z,31.60
2018-12-04T22:32:30.029Z,30.17
2018-12-04T22:34:58.950Z,31.03
2018-12-04T22:37:27.637Z,31.33
2018-12-04T22:39:57.255Z,32.47
2018-12-04T22:42:26.242Z,32.67
2018-12-04T22:44:56.886Z,32.50
2018-12-04T22:47:25.814Z,31.40
2018-12-04T22:49:54.454Z,33.63
2018-12-04T22:52:22.902Z,34.67
2018-12-04T22:54:51.834Z,32.77
2018-12-04T22:57:20.279Z,32.03
2018-12-04T22:59:48.822Z,34.63
2018-12-04T23:02:17.530Z,29.93
2018-12-04T23:04:46.067Z,32.30
2018-12-04T23:07:14.852Z,31.50
2018-12-04T23:09:43.670Z,31.00
2018-12-04T23:12:12.462Z,29.67
2018-12-04T23:14:40.986Z,30.40
2018-12-04T23:17:10.270Z,31.53
2018-12-04T23:19:38.726Z,30.90
2018-12-04T23:22:07.106Z,32.50
2018-12-04T23:24:35.897Z,31.43
2018-12-04T23:27:04.225Z,30.90
2018-12-04T23:29:32.756Z,31.90
2018-12-04T23:32:02.248Z,29.90
2018-12-04T23:34:30.998Z,31.23
2018-12-04T23:36:59.439Z,31.73
2018-12-04T23:39:28.304Z,32.87
2018-12-04T23:41:58.629Z,31.13
2018-12-04T23:44:26.973Z,30.37
2018-12-04T23:46:55.721Z,31.70
2018-12-04T23:49:24.454Z,32.87
2018-12-04T23:51:52.898Z,31.70
2018-12-04T23:54:21.861Z,33.83
2018-12-04T23:56:50.647Z,31.40
2018-12-04T23:59:19.137Z,31.70
